createdAt,value
2023-03-26T00:00:48.485Z,11.00
2023-03-26T00:03:16.993Z,10.98
2023-03-26T00:05:45.856Z,10.97
2023-03-26T00:08:12.580Z,10.94
2023-03-26T00:10:41.428Z,10.96
2023-03-26T00:13:08.328Z,10.97
2023-03-26T00:15:36.745Z,10.97
2023-03-26T00:18:03.996Z,10.97
2023-03-26T00:20:34.575Z,10.94
2023-03-26T00:23:04.043Z,10.94
2023-03-26T00:25:32.009Z,10.93
2023-03-26T00:27:58.606Z,10.92
2023-03-26T00:30:25.130Z,10.89
2023-03-26T00:32:53.582Z,10.90
2023-03-26T00:35:22.352Z,10.88
2023-03-26T00:37:51.536Z,10.88
2023-03-26T00:40:18.270Z,10.86
2023-03-26T00:42:44.815Z,10.85
2023-03-26T00:45:11.613Z,10.87
2023-03-26T00:47:40.105Z,10.83
2023-03-26T00:50:15.274Z,10.81
2023-03-26T00:52:43.878Z,10.79
2023-03-26T00:55:11.000Z,10.76
2023-03-26T00:57:38.477Z,10.74
2023-03-26T01:00:16.879Z,10.71
2023-03-26T01:02:47.015Z,10.65
2023-03-26T01:05:53.024Z,10.59
2023-03-26T01:08:25.712Z,10.51
2023-03-26T01:11:02.733Z,10.42
2023-03-26T01:13:32.987Z,10.35
2023-03-26T01:16:02.037Z,10.23
2023-03-26T01:18:33.962Z,10.12
2023-03-26T01:21:05.743Z,10.00
2023-03-26T01:23:49.087Z,9.90
2023-03-26T01:26:26.234Z,9.82
2023-03-26T01:28:57.384Z,9.77
2023-03-26T01:31:37.202Z,9.74
2023-03-26T01:34:15.850Z,9.72
2023-03-26T01:37:08.738Z,9.71
2023-03-26T01:39:49.290Z,9.68
2023-03-26T01:42:43.923Z,9.69
2023-03-26T01:45:16.670Z,9.74
2023-03-26T01:47:45.162Z,9.75
2023-03-26T01:50:12.345Z,9.75
2023-03-26T01:52:39.386Z,9.74
2023-03-26T01:55:11.610Z,9.75
2023-03-26T01:58:02.586Z,9.76
2023-03-26T02:00:33.571Z,9.71
2023-03-26T02:03:18.924Z,9.69
2023-03-26T02:06:15.714Z,9.65
2023-03-26T02:08:53.998Z,9.64
2023-03-26T02:11:21.577Z,9.62
2023-03-26T02:13:51.222Z,9.60
2023-03-26T02:16:19.846Z,9.54
2023-03-26T02:18:51.277Z,9.54
2023-03-26T02:21:21.418Z,9.51
2023-03-26T02:23:57.757Z,9.50
2023-03-26T02:26:25.299Z,9.46
2023-03-26T02:28:51.872Z,9.45
2023-03-26T02:31:19.422Z,9.41
2023-03-26T02:33:47.646Z,9.41
2023-03-26T02:36:14.540Z,9.40
2023-03-26T02:38:41.771Z,9.41
2023-03-26T02:41:08.393Z,9.39
2023-03-26T02:43:34.965Z,9.39
2023-03-26T02:46:01.560Z,9.37
2023-03-26T02:48:28.152Z,9.33
2023-03-26T02:50:54.889Z,9.33
2023-03-26T02:53:24.113Z,9.28
2023-03-26T02:55:50.886Z,9.25
2023-03-26T02:58:17.670Z,9.23
2023-03-26T03:00:46.746Z,9.19
2023-03-26T03:03:14.158Z,9.18
2023-03-26T03:05:43.285Z,9.17
2023-03-26T03:08:10.353Z,9.12
2023-03-26T03:10:37.794Z,9.10
2023-03-26T03:13:07.751Z,9.06
2023-03-26T03:15:35.034Z,9.04
2023-03-26T03:18:01.909Z,9.02
2023-03-26T03:20:30.311Z,9.01
2023-03-26T03:22:56.854Z,9.02
2023-03-26T03:25:23.412Z,9.00
2023-03-26T03:27:50.284Z,8.96
2023-03-26T03:30:17.062Z,8.94
2023-03-26T03:32:43.624Z,8.91
2023-03-26T03:35:10.210Z,8.80
2023-03-26T03:37:36.770Z,8.87
2023-03-26T03:40:07.471Z,8.85
2023-03-26T03:42:34.066Z,8.86
2023-03-26T03:45:01.961Z,8.86
2023-03-26T03:47:28.523Z,8.80
2023-03-26T03:49:56.937Z,8.84
2023-03-26T03:52:23.481Z,8.79
2023-03-26T03:54:51.062Z,8.72
2023-03-26T03:57:18.841Z,8.68
2023-03-26T03:59:47.775Z,8.59
2023-03-26T04:02:21.254Z,8.51
2023-03-26T04:04:50.126Z,8.47
2023-03-26T04:07:16.824Z,8.46
2023-03-26T04:09:43.385Z,8.42
2023-03-26T04:12:09.923Z,8.37
2023-03-26T04:14:36.603Z,8.34
2023-03-26T04:17:05.391Z,8.34
2023-03-26T04:19:31.999Z,8.34
2023-03-26T04:22:02.719Z,8.35
2023-03-26T04:24:29.914Z,8.32
2023-03-26T04:27:01.201Z,8.33
2023-03-26T04:29:30.688Z,8.31
2023-03-26T04:32:06.743Z,8.32
2023-03-26T04:34:34.187Z,8.31
2023-03-26T04:37:05.036Z,8.29
2023-03-26T04:39:33.990Z,8.28
2023-03-26T04:42:00.637Z,8.26
2023-03-26T04:44:30.322Z,8.28
2023-03-26T04:46:56.980Z,8.31
2023-03-26T04:49:23.530Z,8.32
2023-03-26T04:51:50.136Z,8.37
2023-03-26T04:54:22.418Z,8.36
2023-03-26T04:56:58.440Z,8.42
2023-03-26T04:59:29.991Z,8.38
2023-03-26T05:01:58.009Z,8.39
2023-03-26T05:04:24.867Z,8.44
2023-03-26T05:06:51.693Z,8.47
2023-03-26T05:09:18.958Z,8.51
2023-03-26T05:11:45.663Z,8.54
2023-03-26T05:14:12.314Z,8.58
2023-03-26T05:16:39.600Z,8.63
2023-03-26T05:19:06.993Z,8.63
2023-03-26T05:21:33.586Z,8.70
2023-03-26T05:24:00.492Z,8.76
2023-03-26T05:26:27.176Z,8.80
2023-03-26T05:28:53.723Z,8.83
2023-03-26T05:31:23.646Z,8.86
2023-03-26T05:33:50.675Z,8.92
2023-03-26T05:36:17.386Z,8.93
2023-03-26T05:38:50.028Z,8.96
2023-03-26T05:41:17.635Z,8.95
2023-03-26T05:43:48.899Z,8.96
2023-03-26T05:46:15.680Z,8.98
2023-03-26T05:48:42.403Z,8.99
2023-03-26T05:51:09.062Z,9.01
2023-03-26T05:53:35.856Z,9.11
2023-03-26T05:56:02.468Z,9.18
2023-03-26T05:58:30.969Z,9.23
2023-03-26T06:00:59.977Z,9.22
2023-03-26T06:03:26.971Z,9.31
2023-03-26T06:05:53.733Z,9.34
2023-03-26T06:08:21.913Z,9.39
2023-03-26T06:10:49.839Z,9.45
2023-03-26T06:13:17.388Z,9.51
2023-03-26T06:15:44.025Z,9.59
2023-03-26T06:18:11.252Z,9.66
2023-03-26T06:20:37.839Z,9.75
2023-03-26T06:23:04.441Z,9.84
2023-03-26T06:25:31.140Z,9.94
2023-03-26T06:27:57.787Z,10.00
2023-03-26T06:30:24.355Z,10.03
2023-03-26T06:32:51.024Z,10.05
2023-03-26T06:35:17.631Z,10.10
2023-03-26T06:37:44.307Z,10.09
2023-03-26T06:40:11.414Z,10.13
2023-03-26T06:43:08.174Z,10.15
2023-03-26T06:45:24.972Z,10.25
2023-03-26T06:47:51.534Z,10.40
2023-03-26T06:50:18.536Z,10.59
2023-03-26T06:52:45.212Z,10.91
2023-03-26T06:55:12.868Z,11.17
2023-03-26T06:57:39.505Z,11.31
2023-03-26T07:00:08.724Z,11.37
2023-03-26T07:02:35.940Z,11.40
2023-03-26T07:05:02.609Z,11.36
2023-03-26T07:07:29.190Z,11.39
2023-03-26T07:09:55.740Z,11.46
2023-03-26T07:12:22.283Z,11.49
2023-03-26T07:14:48.950Z,11.62
2023-03-26T07:17:15.817Z,11.80
2023-03-26T07:19:42.382Z,11.90
2023-03-26T07:22:22.065Z,11.94
2023-03-26T07:24:49.462Z,11.86
2023-03-26T07:27:16.466Z,11.66
2023-03-26T07:29:52.323Z,11.42
2023-03-26T07:32:43.374Z,11.34
2023-03-26T07:35:28.327Z,11.22
2023-03-26T07:38:01.094Z,11.26
2023-03-26T07:40:36.822Z,11.29
2023-03-26T07:43:12.350Z,11.26
2023-03-26T07:45:44.148Z,11.20
2023-03-26T07:48:21.058Z,11.17
2023-03-26T07:50:48.644Z,11.10
2023-03-26T07:53:15.452Z,11.10
2023-03-26T07:56:16.698Z,11.15
2023-03-26T07:58:49.312Z,11.38
2023-03-26T08:01:36.413Z,11.70
2023-03-26T08:04:24.116Z,12.04
2023-03-26T08:07:05.235Z,12.15
2023-03-26T08:09:38.801Z,12.11
2023-03-26T08:12:08.057Z,12.14
2023-03-26T08:14:54.537Z,12.19
2023-03-26T08:17:40.606Z,12.26
2023-03-26T08:20:44.875Z,12.33
2023-03-26T08:23:27.806Z,12.48
2023-03-26T08:26:05.096Z,12.59
2023-03-26T08:28:58.688Z,12.72
2023-03-26T08:31:35.058Z,12.76
2023-03-26T08:34:02.347Z,12.58
2023-03-26T08:36:29.537Z,12.34
2023-03-26T08:38:57.421Z,12.11
2023-03-26T08:41:51.878Z,11.98
2023-03-26T08:44:51.141Z,11.95
2023-03-26T08:47:46.585Z,11.92
2023-03-26T08:50:19.036Z,11.92
2023-03-26T08:53:14.355Z,12.02
2023-03-26T08:55:44.925Z,12.04
2023-03-26T08:58:35.456Z,12.05
2023-03-26T09:01:33.158Z,12.03
2023-03-26T09:04:27.911Z,12.00
2023-03-26T09:07:00.475Z,11.95
2023-03-26T09:09:56.171Z,11.82
2023-03-26T09:12:50.714Z,11.82
2023-03-26T09:15:38.618Z,11.87
2023-03-26T09:18:44.800Z,11.81
2023-03-26T09:22:07.556Z,11.78
2023-03-26T09:24:58.296Z,11.77
2023-03-26T09:27:36.012Z,11.80
2023-03-26T09:30:20.588Z,11.81
2023-03-26T09:33:17.687Z,11.90
2023-03-26T09:36:04.332Z,12.10
2023-03-26T09:38:44.027Z,12.35
2023-03-26T09:41:17.893Z,12.57
2023-03-26T09:44:12.650Z,12.64
2023-03-26T09:47:12.988Z,12.71
2023-03-26T09:49:59.749Z,12.70
2023-03-26T09:53:03.198Z,12.69
2023-03-26T09:55:34.524Z,12.73
2023-03-26T09:58:16.166Z,12.71
2023-03-26T10:01:05.747Z,12.71
2023-03-26T10:03:53.303Z,12.67
2023-03-26T10:06:37.273Z,12.59
2023-03-26T10:09:37.161Z,12.60
2023-03-26T10:12:18.746Z,12.76
2023-03-26T10:15:12.850Z,12.91
2023-03-26T10:18:26.604Z,13.11
2023-03-26T10:21:11.588Z,13.50
2023-03-26T10:24:07.175Z,13.92
2023-03-26T10:27:09.007Z,14.28
2023-03-26T10:29:57.947Z,14.42
2023-03-26T10:32:46.808Z,14.37
2023-03-26T10:35:22.387Z,14.53
2023-03-26T10:38:06.518Z,14.32
2023-03-26T10:40:45.140Z,14.21
2023-03-26T10:43:41.932Z,14.22
2023-03-26T10:46:21.093Z,14.33
2023-03-26T10:49:24.993Z,14.31
2023-03-26T10:52:06.987Z,14.46
2023-03-26T10:54:56.728Z,14.89
2023-03-26T10:57:58.807Z,15.97
2023-03-26T11:00:29.037Z,18.24
2023-03-26T11:03:23.199Z,19.17
2023-03-26T11:06:25.545Z,19.06
2023-03-26T11:09:02.009Z,18.73
2023-03-26T11:11:41.993Z,19.86
2023-03-26T11:14:34.455Z,20.29
2023-03-26T11:17:01.605Z,19.52
2023-03-26T11:19:43.187Z,19.08
2023-03-26T11:22:21.845Z,18.29
2023-03-26T11:25:00.371Z,17.42
2023-03-26T11:28:05.050Z,16.88
2023-03-26T11:30:58.511Z,16.47
2023-03-26T11:33:35.060Z,16.98
2023-03-26T11:36:07.246Z,18.89
2023-03-26T11:38:44.572Z,18.31
2023-03-26T11:41:15.124Z,17.12
2023-03-26T11:43:41.650Z,16.48
2023-03-26T11:46:14.116Z,15.91
2023-03-26T11:48:46.230Z,15.70
2023-03-26T11:51:26.532Z,15.72
2023-03-26T11:53:54.555Z,17.42
2023-03-26T11:56:27.765Z,19.54
2023-03-26T11:59:05.779Z,19.63
2023-03-26T12:01:55.398Z,18.91
2023-03-26T12:04:40.691Z,18.11
2023-03-26T12:07:21.122Z,17.78
2023-03-26T12:10:17.924Z,16.94
2023-03-26T12:12:47.550Z,16.49
2023-03-26T12:15:19.891Z,16.13
2023-03-26T12:17:51.391Z,17.52
2023-03-26T12:20:24.924Z,18.57
2023-03-26T12:23:01.901Z,17.94
2023-03-26T12:25:33.785Z,17.15
2023-03-26T12:28:05.414Z,16.59
2023-03-26T12:30:39.670Z,16.23
2023-03-26T12:33:15.117Z,16.19
2023-03-26T12:35:42.788Z,16.68
2023-03-26T12:38:35.839Z,16.68
2023-03-26T12:44:44.871Z,16.32
2023-03-26T12:44:56.033Z,15.80
2023-03-26T12:48:00.299Z,15.54
2023-03-26T12:50:14.383Z,15.51
2023-03-26T12:53:25.587Z,15.79
2023-03-26T12:56:01.637Z,15.99
2023-03-26T12:58:51.399Z,16.16
2023-03-26T13:01:41.833Z,16.73
2023-03-26T13:04:41.446Z,17.64
2023-03-26T13:07:40.514Z,19.29
2023-03-26T13:10:29.307Z,19.12
2023-03-26T13:13:18.707Z,18.29
2023-03-26T13:15:54.047Z,17.85
2023-03-26T13:18:52.617Z,17.62
2023-03-26T13:21:53.115Z,16.82
2023-03-26T13:24:45.377Z,15.69
2023-03-26T13:27:30.005Z,15.02
2023-03-26T13:30:02.876Z,14.31
2023-03-26T13:32:40.986Z,13.82
2023-03-26T13:35:15.808Z,13.47
2023-03-26T13:37:56.856Z,13.23
2023-03-26T13:40:34.817Z,13.07
2023-03-26T13:43:10.314Z,12.91
2023-03-26T13:45:49.576Z,12.81
2023-03-26T13:48:24.412Z,12.76
2023-03-26T13:51:13.053Z,12.79
2023-03-26T13:53:55.268Z,13.08
2023-03-26T13:56:28.228Z,13.59
2023-03-26T13:59:01.254Z,14.25
2023-03-26T14:01:36.321Z,15.59
2023-03-26T14:04:17.812Z,16.33
2023-03-26T14:06:57.154Z,16.34
2023-03-26T14:09:32.041Z,16.21
2023-03-26T14:12:21.792Z,15.92
2023-03-26T14:14:58.899Z,15.90
2023-03-26T14:17:34.316Z,15.69
2023-03-26T14:20:27.032Z,15.62
2023-03-26T14:23:02.801Z,15.96
2023-03-26T14:25:47.209Z,18.23
2023-03-26T14:28:47.618Z,18.34
2023-03-26T14:31:23.701Z,20.94
2023-03-26T14:33:55.875Z,24.15
2023-03-26T14:36:43.854Z,26.50
2023-03-26T14:39:47.940Z,26.43
2023-03-26T14:42:55.151Z,24.75
2023-03-26T14:45:55.562Z,23.83
2023-03-26T14:48:57.263Z,22.75
2023-03-26T14:51:29.072Z,22.06
2023-03-26T14:54:01.603Z,21.31
2023-03-26T14:56:47.027Z,21.24
2023-03-26T14:59:34.760Z,21.84
2023-03-26T15:02:26.298Z,23.03
2023-03-26T15:05:11.445Z,25.08
2023-03-26T15:08:05.761Z,26.50
2023-03-26T15:11:09.995Z,27.45
2023-03-26T15:14:01.879Z,26.03
2023-03-26T15:16:31.437Z,23.56
2023-03-26T15:19:22.780Z,21.45
2023-03-26T15:22:12.670Z,19.53
2023-03-26T15:25:10.392Z,18.34
2023-03-26T15:27:55.051Z,17.54
2023-03-26T15:30:50.238Z,16.69
2023-03-26T15:33:43.849Z,16.01
2023-03-26T15:36:38.223Z,15.38
2023-03-26T15:39:23.405Z,15.01
2023-03-26T15:41:58.055Z,14.63
2023-03-26T15:45:15.719Z,14.28
2023-03-26T15:47:49.904Z,13.93
2023-03-26T15:50:31.652Z,13.64
2023-03-26T15:53:23.537Z,13.35
2023-03-26T15:56:04.738Z,13.13
2023-03-26T15:58:41.685Z,12.98
2023-03-26T16:01:42.434Z,12.80
2023-03-26T16:04:50.278Z,12.70
2023-03-26T16:07:42.453Z,12.56
2023-03-26T16:10:46.634Z,12.42
2023-03-26T16:13:26.615Z,12.21
2023-03-26T16:15:56.123Z,12.02
2023-03-26T16:18:30.397Z,11.85
2023-03-26T16:21:32.354Z,11.69
2023-03-26T16:24:02.173Z,11.54
2023-03-26T16:26:31.829Z,11.39
2023-03-26T16:29:14.297Z,11.28
2023-03-26T16:32:05.820Z,11.14
2023-03-26T16:34:59.418Z,10.99
2023-03-26T16:37:37.911Z,10.92
2023-03-26T16:40:20.790Z,10.83
2023-03-26T16:43:05.973Z,10.73
2023-03-26T16:45:56.863Z,10.63
2023-03-26T16:48:35.005Z,10.50
2023-03-26T16:51:27.347Z,10.41
2023-03-26T16:53:58.241Z,10.34
2023-03-26T16:57:06.552Z,10.26
2023-03-26T17:00:05.391Z,10.19
2023-03-26T17:03:00.500Z,10.09
2023-03-26T17:05:34.296Z,10.01
2023-03-26T17:08:36.385Z,9.92
2023-03-26T17:11:09.169Z,9.79
2023-03-26T17:13:52.934Z,9.71
2023-03-26T17:16:28.725Z,9.66
2023-03-26T17:19:05.364Z,9.61
2023-03-26T17:21:49.958Z,9.55
2023-03-26T17:24:26.592Z,9.47
2023-03-26T17:27:00.298Z,9.41
2023-03-26T17:29:45.543Z,9.35
2023-03-26T17:32:15.516Z,9.31
2023-03-26T17:34:50.978Z,9.28
2023-03-26T17:37:18.856Z,9.23
2023-03-26T17:39:48.192Z,9.21
2023-03-26T17:42:35.541Z,9.16
2023-03-26T17:45:25.097Z,9.08
2023-03-26T17:48:00.107Z,9.01
2023-03-26T17:50:32.051Z,8.98
2023-03-26T17:53:05.925Z,8.97
2023-03-26T17:55:36.445Z,8.99
2023-03-26T17:58:05.733Z,8.94
2023-03-26T18:00:42.266Z,8.92
2023-03-26T18:03:24.115Z,8.90
2023-03-26T18:05:57.237Z,8.83
2023-03-26T18:09:01.161Z,8.80
2023-03-26T18:11:50.789Z,8.74
2023-03-26T18:14:38.749Z,8.72
2023-03-26T18:17:06.387Z,8.68
2023-03-26T18:19:52.403Z,8.67
2023-03-26T18:22:30.519Z,8.62
2023-03-26T18:25:00.613Z,8.63
2023-03-26T18:27:36.910Z,8.61
2023-03-26T18:30:14.290Z,8.57
2023-03-26T18:32:52.429Z,8.53
2023-03-26T18:35:21.522Z,8.51
2023-03-26T18:37:51.911Z,8.47
2023-03-26T18:40:21.437Z,8.42
2023-03-26T18:42:55.142Z,8.39
2023-03-26T18:45:31.639Z,8.38
2023-03-26T18:48:02.075Z,8.36
2023-03-26T18:50:34.729Z,8.32
2023-03-26T18:53:01.633Z,8.33
2023-03-26T18:55:30.750Z,8.28
2023-03-26T18:57:57.724Z,8.26
2023-03-26T19:00:27.808Z,8.23
2023-03-26T19:03:03.544Z,8.20
2023-03-26T19:05:32.975Z,8.14
2023-03-26T19:08:03.608Z,8.15
2023-03-26T19:10:33.005Z,8.15
2023-03-26T19:13:03.394Z,8.12
2023-03-26T19:15:35.519Z,8.08
2023-03-26T19:18:12.174Z,8.04
2023-03-26T19:20:45.607Z,8.02
2023-03-26T19:23:21.674Z,7.93
2023-03-26T19:26:00.100Z,7.94
2023-03-26T19:28:31.778Z,7.87
2023-03-26T19:31:15.641Z,7.83
2023-03-26T19:33:44.272Z,7.78
2023-03-26T19:36:14.259Z,7.79
2023-03-26T19:38:52.820Z,7.80
2023-03-26T19:41:31.119Z,7.76
2023-03-26T19:44:26.524Z,7.73
2023-03-26T19:47:02.257Z,7.64
2023-03-26T19:49:42.345Z,7.63
2023-03-26T19:52:17.614Z,7.58
2023-03-26T19:55:00.098Z,7.57
2023-03-26T19:57:37.254Z,7.52
2023-03-26T20:00:13.366Z,7.51
2023-03-26T20:02:42.212Z,7.49
2023-03-26T20:05:31.098Z,7.48
2023-03-26T20:08:00.004Z,7.47
2023-03-26T20:10:27.608Z,7.48
2023-03-26T20:12:54.259Z,7.47
2023-03-26T20:15:26.214Z,7.43
2023-03-26T20:17:54.540Z,7.38
2023-03-26T20:20:25.384Z,7.35
2023-03-26T20:22:53.813Z,7.26
2023-03-26T20:25:23.366Z,7.27
2023-03-26T20:27:52.985Z,7.32
2023-03-26T20:30:36.397Z,7.30
2023-03-26T20:33:12.521Z,7.29
2023-03-26T20:35:40.189Z,7.30
2023-03-26T20:38:09.609Z,7.32
2023-03-26T20:40:36.728Z,7.30
2023-03-26T20:43:03.252Z,7.32
2023-03-26T20:45:29.949Z,7.34
2023-03-26T20:47:57.232Z,7.39
2023-03-26T20:50:24.379Z,7.39
2023-03-26T20:52:51.022Z,7.37
2023-03-26T20:55:21.359Z,7.33
2023-03-26T20:57:48.648Z,7.31
2023-03-26T21:00:17.466Z,7.30
2023-03-26T21:02:44.078Z,7.22
2023-03-26T21:05:14.886Z,7.24
2023-03-26T21:07:42.953Z,7.20
2023-03-26T21:10:14.281Z,7.22
2023-03-26T21:13:17.867Z,7.19
2023-03-26T21:15:45.143Z,7.19
2023-03-26T21:18:12.195Z,7.19
2023-03-26T21:20:39.524Z,7.17
2023-03-26T21:23:08.764Z,7.13
2023-03-26T21:25:53.917Z,7.17
2023-03-26T21:28:42.256Z,7.12
2023-03-26T21:31:20.431Z,7.15
2023-03-26T21:33:49.274Z,7.13
2023-03-26T21:36:18.026Z,7.13
2023-03-26T21:38:45.540Z,7.10
2023-03-26T21:41:38.514Z,7.10
2023-03-26T21:44:05.411Z,7.11
2023-03-26T21:46:32.291Z,7.11
2023-03-26T21:48:59.084Z,7.09
2023-03-26T21:51:26.155Z,7.11
2023-03-26T21:53:53.028Z,7.08
2023-03-26T21:56:25.553Z,7.07
2023-03-26T21:59:02.539Z,7.20
2023-03-26T22:01:43.126Z,7.16
2023-03-26T22:04:12.760Z,7.18
2023-03-26T22:07:19.702Z,7.18
2023-03-26T22:09:46.954Z,7.16
2023-03-26T22:12:13.702Z,7.11
2023-03-26T22:14:40.520Z,7.11
2023-03-26T22:17:07.461Z,7.09
2023-03-26T22:19:34.636Z,7.02
2023-03-26T22:22:01.666Z,6.99
2023-03-26T22:24:28.562Z,6.97
2023-03-26T22:26:55.133Z,6.96
2023-03-26T22:29:21.858Z,6.88
2023-03-26T22:31:48.545Z,6.89
2023-03-26T22:34:15.230Z,6.82
2023-03-26T22:36:41.883Z,6.82
2023-03-26T22:39:08.444Z,6.79
2023-03-26T22:41:34.954Z,6.79
2023-03-26T22:44:12.941Z,6.72
2023-03-26T22:46:48.961Z,6.69
2023-03-26T22:49:16.278Z,6.67
2023-03-26T22:51:42.883Z,6.67
2023-03-26T22:54:09.643Z,6.61
2023-03-26T22:56:37.074Z,6.58
2023-03-26T22:59:03.905Z,6.60
2023-03-26T23:01:30.780Z,6.59
2023-03-26T23:03:57.916Z,6.57
2023-03-26T23:06:25.207Z,6.53
2023-03-26T23:08:51.869Z,6.53
2023-03-26T23:11:21.920Z,6.51
2023-03-26T23:13:49.048Z,6.47
2023-03-26T23:16:17.592Z,6.46
2023-03-26T23:18:44.912Z,6.47
2023-03-26T23:21:16.945Z,6.45
2023-03-26T23:23:43.917Z,6.44
2023-03-26T23:26:10.926Z,6.48
2023-03-26T23:28:38.335Z,6.40
2023-03-26T23:31:07.215Z,6.37
2023-03-26T23:33:36.933Z,6.38
2023-03-26T23:36:08.977Z,6.33
2023-03-26T23:38:44.005Z,6.33
2023-03-26T23:41:15.150Z,6.33
2023-03-26T23:43:54.808Z,6.38
2023-03-26T23:46:30.903Z,6.38
2023-03-26T23:48:59.852Z,6.36
2023-03-26T23:51:26.675Z,6.32
2023-03-26T23:53:54.069Z,6.29
2023-03-26T23:56:21.097Z,6.33
2023-03-26T23:58:48.951Z,6.26
